createdAt,value
2019-03-12T00:02:18.943Z,98.90
2019-03-12T00:04:55.362Z,98.80
2019-03-12T00:07:30.243Z,99.10
2019-03-12T00:10:19.597Z,98.90
2019-03-12T00:12:44.193Z,99.00
2019-03-12T00:15:17.893Z,99.40
2019-03-12T00:17:52.021Z,98.90
2019-03-12T00:20:24.338Z,99.10
2019-03-12T00:23:00.495Z,99.50
2019-03-12T00:25:34.362Z,99.10
2019-03-12T00:28:09.019Z,99.20
2019-03-12T00:30:42.556Z,99.30
2019-03-12T00:33:16.521Z,98.90
2019-03-12T00:35:51.266Z,99.10
2019-03-12T00:38:25.267Z,99.10
2019-03-12T00:40:58.836Z,98.80
2019-03-12T00:43:32.789Z,98.70
2019-03-12T00:46:06.507Z,98.80
2019-03-12T00:48:42.034Z,98.60
2019-03-12T00:51:15.622Z,98.60
2019-03-12T00:53:49.574Z,98.70
2019-03-12T00:56:23.267Z,98.60
2019-03-12T00:58:59.860Z,98.50
2019-03-12T01:01:34.152Z,98.60
2019-03-12T01:04:08.189Z,98.60
2019-03-12T01:06:41.757Z,98.80
2019-03-12T01:09:16.118Z,98.80
2019-03-12T01:11:49.903Z,98.90
2019-03-12T01:14:23.856Z,98.80
2019-03-12T01:16:58.325Z,99.10
2019-03-12T01:19:32.780Z,98.70
2019-03-12T01:22:06.982Z,98.60
2019-03-12T01:24:40.929Z,98.50
2019-03-12T01:27:14.615Z,98.50
2019-03-12T01:29:49.918Z,97.70
2019-03-12T01:32:23.471Z,98.20
2019-03-12T01:34:57.496Z,99.00
2019-03-12T01:37:31.227Z,99.50
2019-03-12T01:40:05.533Z,99.90
2019-03-12T01:42:39.329Z,99.90
2019-03-12T01:45:15.497Z,99.90
2019-03-12T01:47:49.315Z,99.90
2019-03-12T01:50:23.370Z,99.90
2019-03-12T01:52:57.129Z,99.90
2019-03-12T01:55:31.733Z,99.90
2019-03-12T01:58:05.255Z,99.90
2019-03-12T02:00:42.544Z,99.90
2019-03-12T02:03:16.126Z,99.90
2019-03-12T02:05:50.356Z,99.90
2019-03-12T02:08:24.047Z,99.90
2019-03-12T02:10:58.126Z,99.90
2019-03-12T02:13:31.893Z,99.90
2019-03-12T02:16:07.070Z,99.90
2019-03-12T02:18:41.057Z,99.90
2019-03-12T02:21:15.130Z,99.90
2019-03-12T02:23:49.022Z,99.90
2019-03-12T02:26:23.146Z,99.90
2019-03-12T02:28:57.096Z,99.90
2019-03-12T02:31:31.697Z,99.90
2019-03-12T02:34:05.768Z,99.90
2019-03-12T02:36:39.736Z,99.90
2019-03-12T02:39:14.562Z,99.90
2019-03-12T02:41:50.140Z,99.90
2019-03-12T02:44:24.334Z,99.90
2019-03-12T02:46:58.436Z,99.90
2019-03-12T02:49:32.301Z,99.90
2019-03-12T02:52:06.909Z,99.90
2019-03-12T02:54:40.562Z,99.90
2019-03-12T02:57:14.712Z,99.90
2019-03-12T02:59:48.632Z,99.90
2019-03-12T03:02:25.521Z,99.90
2019-03-12T03:04:59.100Z,99.90
2019-03-12T03:07:59.478Z,99.90
2019-03-12T03:10:33.107Z,99.90
2019-03-12T03:13:07.170Z,99.90
2019-03-12T03:15:43.047Z,99.90
2019-03-12T03:18:17.093Z,99.90
2019-03-12T03:20:51.068Z,99.90
2019-03-12T03:23:24.992Z,99.90
2019-03-12T03:25:58.992Z,99.90
2019-03-12T03:28:33.128Z,99.90
2019-03-12T03:31:07.040Z,99.90
2019-03-12T03:33:41.345Z,99.90
2019-03-12T03:36:15.035Z,99.90
2019-03-12T03:38:49.308Z,99.90
2019-03-12T03:41:23.364Z,99.90
2019-03-12T03:43:57.558Z,99.90
2019-03-12T03:46:31.217Z,99.90
2019-03-12T03:49:05.772Z,99.90
2019-03-12T03:51:39.475Z,99.90
2019-03-12T03:54:13.788Z,99.90
2019-03-12T03:56:47.446Z,99.90
2019-03-12T03:59:22.445Z,99.90
2019-03-12T04:01:56.070Z,99.90
2019-03-12T04:04:33.286Z,99.90
2019-03-12T04:07:07.045Z,99.90
2019-03-12T04:09:40.975Z,99.90
2019-03-12T04:12:14.730Z,99.90
2019-03-12T04:14:48.819Z,99.90
2019-03-12T04:17:22.863Z,99.90
2019-03-12T04:19:56.808Z,99.90
2019-03-12T04:22:30.689Z,99.90
2019-03-12T04:25:04.624Z,99.90
2019-03-12T04:27:38.333Z,99.90
2019-03-12T04:30:13.499Z,99.90
2019-03-12T04:32:47.385Z,99.90
2019-03-12T04:35:21.882Z,99.90
2019-03-12T04:37:56.149Z,99.90
2019-03-12T04:40:30.068Z,99.90
2019-03-12T04:43:03.754Z,99.90
2019-03-12T04:45:37.780Z,99.90
2019-03-12T04:48:11.470Z,99.90
2019-03-12T04:50:43.687Z,99.90
2019-03-12T04:53:17.517Z,99.90
2019-03-12T04:55:51.696Z,99.90
2019-03-12T04:58:25.426Z,99.90
2019-03-12T05:00:59.281Z,99.90
2019-03-12T05:03:32.808Z,99.90
2019-03-12T05:06:09.696Z,99.90
2019-03-12T05:08:44.237Z,99.90
2019-03-12T05:11:18.191Z,99.90
2019-03-12T05:14:40.259Z,99.90
2019-03-12T05:17:25.767Z,99.90
2019-03-12T05:19:59.400Z,99.90
2019-03-12T05:22:33.322Z,99.90
2019-03-12T05:25:07.728Z,99.90
2019-03-12T05:27:42.417Z,99.90
2019-03-12T05:30:26.081Z,99.90
2019-03-12T05:33:00.105Z,99.90
2019-03-12T05:35:33.856Z,99.90
2019-03-12T05:38:08.067Z,99.90
2019-03-12T05:40:42.077Z,99.90
2019-03-12T05:43:16.082Z,96.60
2019-03-12T05:45:50.126Z,96.80
2019-03-12T05:48:24.609Z,93.60
2019-03-12T05:50:58.238Z,95.30
2019-03-12T05:53:48.209Z,92.80
2019-03-12T05:56:23.301Z,92.40
2019-03-12T05:58:57.330Z,92.00
2019-03-12T06:01:31.396Z,91.40
2019-03-12T06:04:05.537Z,92.40
2019-03-12T06:06:42.544Z,91.80
2019-03-12T06:09:29.504Z,91.80
2019-03-12T06:11:52.270Z,92.50
2019-03-12T06:14:26.504Z,92.00
2019-03-12T06:17:00.494Z,91.00
2019-03-12T06:19:36.963Z,90.90
2019-03-12T06:22:11.903Z,91.80
2019-03-12T06:24:46.454Z,91.90
2019-03-12T06:27:20.508Z,91.60
2019-03-12T06:29:54.708Z,91.70
2019-03-12T06:32:40.812Z,92.00
2019-03-12T06:35:20.474Z,92.90
2019-03-12T06:38:07.364Z,91.60
2019-03-12T06:40:59.251Z,91.60
2019-03-12T06:43:59.744Z,91.80
2019-03-12T06:46:48.777Z,90.10
2019-03-12T06:49:39.183Z,90.00
2019-03-12T06:52:34.280Z,90.40
2019-03-12T06:55:34.258Z,90.10
2019-03-12T06:58:29.088Z,88.70
2019-03-12T07:01:15.201Z,87.40
2019-03-12T07:04:00.074Z,87.80
2019-03-12T07:06:56.946Z,85.70
2019-03-12T07:09:47.638Z,87.30
2019-03-12T07:12:57.565Z,88.60
2019-03-12T07:15:51.985Z,88.80
2019-03-12T07:19:04.911Z,88.00
2019-03-12T07:21:53.952Z,87.00
2019-03-12T07:24:50.240Z,86.60
2019-03-12T07:27:50.938Z,85.20
2019-03-12T07:30:58.892Z,85.90
2019-03-12T07:33:47.678Z,86.80
2019-03-12T07:36:39.253Z,85.00
2019-03-12T07:39:35.305Z,83.40
2019-03-12T07:42:48.327Z,81.50
2019-03-12T07:45:32.289Z,81.70
2019-03-12T07:48:16.406Z,82.20
2019-03-12T07:51:11.570Z,86.00
2019-03-12T07:53:59.409Z,88.50
2019-03-12T07:56:50.453Z,88.20
2019-03-12T07:59:44.762Z,88.30
2019-03-12T08:02:40.922Z,86.90
2019-03-12T08:05:28.152Z,83.70
2019-03-12T08:08:23.769Z,83.50
2019-03-12T08:11:17.865Z,85.30
2019-03-12T08:14:10.533Z,86.60
2019-03-12T08:17:15.885Z,85.70
2019-03-12T08:20:13.396Z,86.80
2019-03-12T08:23:14.384Z,86.90
2019-03-12T08:26:06.419Z,88.30
2019-03-12T08:28:50.168Z,89.20
2019-03-12T08:31:43.478Z,90.30
2019-03-12T08:34:38.364Z,88.50
2019-03-12T08:37:23.465Z,90.20
2019-03-12T08:40:12.240Z,91.20
2019-03-12T08:43:06.214Z,91.70
2019-03-12T08:46:00.192Z,92.60
2019-03-12T08:49:15.017Z,93.00
2019-03-12T08:52:12.782Z,93.10
2019-03-12T08:55:20.297Z,93.30
2019-03-12T08:58:27.437Z,94.80
2019-03-12T09:01:31.248Z,95.50
2019-03-12T09:04:25.333Z,96.10
2019-03-12T09:07:15.063Z,94.00
2019-03-12T09:10:15.363Z,94.20
2019-03-12T09:13:04.223Z,93.80
2019-03-12T09:16:02.635Z,93.90
2019-03-12T09:19:07.008Z,92.40
2019-03-12T09:21:54.731Z,91.80
2019-03-12T09:24:52.202Z,91.10
2019-03-12T09:27:49.157Z,92.50
2019-03-12T09:30:48.057Z,92.40
2019-03-12T09:33:59.953Z,92.10
2019-03-12T09:37:03.729Z,91.40
2019-03-12T09:39:57.682Z,91.10
2019-03-12T09:42:53.547Z,91.20
2019-03-12T09:45:46.502Z,90.50
2019-03-12T09:48:46.371Z,90.80
2019-03-12T09:51:25.190Z,87.40
2019-03-12T09:54:40.518Z,90.20
2019-03-12T09:57:46.391Z,90.00
2019-03-12T10:00:45.284Z,90.00
2019-03-12T10:03:47.858Z,86.40
2019-03-12T10:06:42.548Z,88.10
2019-03-12T10:09:36.254Z,87.60
2019-03-12T10:12:28.754Z,87.30
2019-03-12T10:15:21.210Z,86.70
2019-03-12T10:18:16.169Z,85.00
2019-03-12T10:21:04.958Z,86.40
2019-03-12T10:24:07.458Z,86.70
2019-03-12T10:27:03.147Z,85.90
2019-03-12T10:29:57.829Z,84.90
2019-03-12T10:32:59.482Z,83.30
2019-03-12T10:35:52.494Z,82.70
2019-03-12T10:39:10.965Z,80.20
2019-03-12T10:42:11.050Z,83.20
2019-03-12T10:44:58.211Z,81.80
2019-03-12T10:47:40.155Z,86.00
2019-03-12T10:50:14.249Z,86.70
2019-03-12T10:52:49.592Z,85.30
2019-03-12T10:55:25.391Z,85.70
2019-03-12T10:58:00.339Z,88.00
2019-03-12T11:00:37.208Z,88.90
2019-03-12T11:03:15.633Z,90.00
2019-03-12T11:05:51.538Z,90.40
2019-03-12T11:08:25.674Z,90.00
2019-03-12T11:11:02.480Z,90.00
2019-03-12T11:13:39.198Z,88.90
2019-03-12T11:16:14.033Z,88.00
2019-03-12T11:18:51.216Z,87.90
2019-03-12T11:21:25.082Z,88.20
2019-03-12T11:23:59.604Z,89.00
2019-03-12T11:26:35.784Z,88.30
2019-03-12T11:29:12.976Z,90.10
2019-03-12T11:31:49.969Z,86.90
2019-03-12T11:34:27.350Z,87.00
2019-03-12T11:37:14.610Z,85.10
2019-03-12T11:39:49.789Z,85.20
2019-03-12T11:42:24.449Z,83.60
2019-03-12T11:44:59.566Z,84.00
2019-03-12T11:47:34.569Z,83.10
2019-03-12T11:50:10.320Z,80.80
2019-03-12T11:52:54.698Z,80.90
2019-03-12T11:55:21.886Z,79.40
2019-03-12T11:58:00.724Z,80.00
2019-03-12T12:00:56.551Z,78.90
2019-03-12T12:03:34.342Z,80.10
2019-03-12T12:06:23.435Z,80.50
2019-03-12T12:08:59.676Z,80.00
2019-03-12T12:11:36.762Z,79.90
2019-03-12T12:14:10.601Z,79.90
2019-03-12T12:16:45.345Z,78.30
2019-03-12T12:19:20.699Z,80.50
2019-03-12T12:21:55.531Z,79.40
2019-03-12T12:24:30.845Z,79.30
2019-03-12T12:27:08.649Z,77.20
2019-03-12T12:29:44.089Z,76.90
2019-03-12T12:32:19.704Z,78.90
2019-03-12T12:34:55.496Z,75.60
2019-03-12T12:37:30.678Z,75.50
2019-03-12T12:40:06.812Z,76.00
2019-03-12T12:42:43.719Z,73.70
2019-03-12T12:45:19.401Z,77.80
2019-03-12T12:47:56.462Z,80.90
2019-03-12T12:51:02.343Z,82.50
2019-03-12T12:53:27.869Z,82.80
2019-03-12T12:56:09.702Z,82.50
2019-03-12T12:58:45.045Z,81.50
2019-03-12T13:01:22.409Z,86.50
2019-03-12T13:03:57.441Z,87.80
2019-03-12T13:06:31.079Z,90.00
2019-03-12T13:09:06.209Z,90.60
2019-03-12T13:11:45.325Z,90.70
2019-03-12T13:14:19.865Z,90.40
2019-03-12T13:16:56.596Z,90.70
2019-03-12T13:19:37.393Z,91.60
2019-03-12T13:22:13.566Z,92.30
2019-03-12T13:24:55.446Z,92.90
2019-03-12T13:27:41.284Z,92.20
2019-03-12T13:30:09.116Z,92.20
2019-03-12T13:32:43.276Z,92.70
2019-03-12T13:35:19.779Z,93.10
2019-03-12T13:37:54.611Z,92.50
2019-03-12T13:40:31.132Z,92.00
2019-03-12T13:43:06.653Z,92.20
2019-03-12T13:45:41.979Z,92.00
2019-03-12T13:48:29.705Z,91.10
2019-03-12T13:51:15.173Z,91.30
2019-03-12T13:53:49.660Z,91.50
2019-03-12T13:56:25.631Z,91.70
2019-03-12T13:59:01.248Z,92.20
2019-03-12T14:01:35.849Z,92.60
2019-03-12T14:04:11.082Z,92.10
2019-03-12T14:06:46.527Z,92.60
2019-03-12T14:09:20.422Z,92.50
2019-03-12T14:12:00.182Z,91.10
2019-03-12T14:14:37.354Z,91.00
2019-03-12T14:17:12.396Z,90.90
2019-03-12T14:19:48.273Z,90.80
2019-03-12T14:22:22.075Z,91.10
2019-03-12T14:24:57.248Z,91.00
2019-03-12T14:27:32.760Z,90.30
2019-03-12T14:30:06.216Z,90.70
2019-03-12T14:32:41.068Z,90.70
2019-03-12T14:35:18.257Z,92.10
2019-03-12T14:37:57.598Z,92.10
2019-03-12T14:40:31.703Z,90.00
2019-03-12T14:43:11.801Z,90.40
2019-03-12T14:45:53.528Z,89.30
2019-03-12T14:49:03.093Z,88.90
2019-03-12T14:52:08.579Z,89.30
2019-03-12T14:54:43.164Z,90.20
2019-03-12T14:57:17.525Z,89.50
2019-03-12T14:59:52.655Z,89.90
2019-03-12T15:02:32.030Z,89.20
2019-03-12T15:05:10.516Z,88.80
2019-03-12T15:07:45.107Z,89.00
2019-03-12T15:10:21.236Z,89.10
2019-03-12T15:12:58.061Z,89.50
2019-03-12T15:15:32.516Z,90.60
2019-03-12T15:18:06.780Z,89.20
2019-03-12T15:20:45.850Z,88.60
2019-03-12T15:23:24.631Z,87.50
2019-03-12T15:26:00.532Z,86.80
2019-03-12T15:28:36.255Z,89.50
2019-03-12T15:31:18.408Z,88.80
2019-03-12T15:33:52.869Z,88.20
2019-03-12T15:36:27.917Z,89.00
2019-03-12T15:39:01.950Z,90.10
2019-03-12T15:41:39.084Z,90.90
2019-03-12T15:44:14.002Z,89.70
2019-03-12T15:46:52.425Z,90.40
2019-03-12T15:49:26.887Z,90.20
2019-03-12T15:52:03.823Z,88.10
2019-03-12T15:54:41.031Z,86.90
2019-03-12T15:57:15.147Z,88.90
2019-03-12T15:59:49.848Z,85.80
2019-03-12T16:02:26.809Z,84.90
2019-03-12T16:05:01.057Z,84.40
2019-03-12T16:07:43.734Z,86.90
2019-03-12T16:10:19.686Z,88.10
2019-03-12T16:12:54.634Z,88.60
2019-03-12T16:15:29.426Z,88.40
2019-03-12T16:18:04.407Z,88.30
2019-03-12T16:20:39.183Z,88.30
2019-03-12T16:23:13.923Z,88.40
2019-03-12T16:25:50.416Z,87.70
2019-03-12T16:28:26.154Z,87.90
2019-03-12T16:31:01.555Z,88.10
2019-03-12T16:33:39.732Z,88.10
2019-03-12T16:36:13.785Z,85.60
2019-03-12T16:38:48.826Z,85.90
2019-03-12T16:41:22.794Z,86.10
2019-03-12T16:43:57.044Z,85.70
2019-03-12T16:46:31.517Z,85.60
2019-03-12T16:49:07.185Z,85.70
2019-03-12T16:51:41.148Z,85.60
2019-03-12T16:54:15.833Z,85.30
2019-03-12T16:56:50.195Z,86.20
2019-03-12T16:59:25.516Z,87.20
2019-03-12T17:02:05.727Z,87.70
2019-03-12T17:04:43.020Z,86.20
2019-03-12T17:07:25.962Z,86.80
2019-03-12T17:10:05.746Z,86.80
2019-03-12T17:12:41.142Z,86.80
2019-03-12T17:15:16.726Z,88.00
2019-03-12T17:17:59.300Z,88.70
2019-03-12T17:20:33.999Z,88.90
2019-03-12T17:23:25.731Z,88.60
2019-03-12T17:26:02.176Z,90.20
2019-03-12T17:28:36.521Z,90.70
2019-03-12T17:31:10.814Z,90.70
2019-03-12T17:33:45.459Z,91.00
2019-03-12T17:36:20.509Z,91.20
2019-03-12T17:38:55.412Z,91.30
2019-03-12T17:41:33.619Z,91.30
2019-03-12T17:44:08.775Z,91.20
2019-03-12T17:46:42.934Z,91.40
2019-03-12T17:49:16.563Z,91.40
2019-03-12T17:51:52.789Z,91.30
2019-03-12T17:54:32.239Z,91.30
2019-03-12T17:57:07.667Z,91.30
2019-03-12T17:59:43.994Z,91.20
2019-03-12T18:02:19.713Z,91.50
2019-03-12T18:04:54.895Z,91.60
2019-03-12T18:07:29.072Z,90.40
2019-03-12T18:10:05.407Z,91.00
2019-03-12T18:12:43.653Z,91.00
2019-03-12T18:15:19.832Z,91.20
2019-03-12T18:17:55.794Z,91.20
2019-03-12T18:20:29.870Z,91.30
2019-03-12T18:23:07.075Z,91.90
2019-03-12T18:25:42.440Z,90.80
2019-03-12T18:28:18.024Z,90.50
2019-03-12T18:30:52.911Z,78.40
2019-03-12T18:33:26.332Z,78.60
2019-03-12T18:36:00.708Z,79.60
2019-03-12T18:38:35.462Z,85.20
2019-03-12T18:41:12.727Z,87.50
2019-03-12T18:43:47.669Z,86.80
2019-03-12T18:46:22.571Z,86.30
2019-03-12T18:48:56.845Z,87.80
2019-03-12T18:51:53.252Z,88.30
2019-03-12T18:54:19.515Z,88.50
2019-03-12T18:56:55.951Z,90.70
2019-03-12T18:59:31.878Z,91.50
2019-03-12T19:02:05.786Z,91.90
2019-03-12T19:04:42.689Z,92.00
2019-03-12T19:07:18.374Z,92.30
2019-03-12T19:09:56.375Z,92.60
2019-03-12T19:12:30.278Z,92.50
2019-03-12T19:15:05.274Z,92.70
2019-03-12T19:17:39.710Z,92.80
2019-03-12T19:20:15.479Z,93.20
2019-03-12T19:22:49.076Z,93.10
2019-03-12T19:25:23.520Z,93.20
2019-03-12T19:28:01.100Z,92.60
2019-03-12T19:30:36.172Z,92.70
2019-03-12T19:33:20.439Z,93.00
2019-03-12T19:35:56.155Z,92.80
2019-03-12T19:38:30.279Z,92.40
2019-03-12T19:41:04.587Z,92.50
2019-03-12T19:43:38.432Z,92.70
2019-03-12T19:46:13.478Z,92.90
2019-03-12T19:48:47.111Z,93.10
2019-03-12T19:51:22.261Z,92.70
2019-03-12T19:53:56.146Z,92.30
2019-03-12T19:56:31.295Z,92.30
2019-03-12T19:59:05.898Z,92.60
2019-03-12T20:01:47.090Z,92.50
2019-03-12T20:04:21.632Z,92.70
2019-03-12T20:06:55.842Z,92.40
2019-03-12T20:09:45.627Z,92.40
2019-03-12T20:13:05.515Z,92.40
2019-03-12T20:16:14.078Z,91.70
2019-03-12T20:19:31.960Z,92.10
2019-03-12T20:22:49.511Z,92.10
2019-03-12T20:25:58.426Z,92.40
2019-03-12T20:29:33.703Z,92.60
2019-03-12T20:33:10.085Z,92.70
2019-03-12T20:36:18.336Z,93.00
2019-03-12T20:39:26.126Z,92.70
2019-03-12T20:42:34.134Z,92.50
2019-03-12T20:45:55.600Z,92.60
2019-03-12T20:49:32.016Z,92.90
2019-03-12T20:52:59.250Z,93.10
2019-03-12T20:56:41.955Z,93.10
2019-03-12T20:59:54.946Z,92.80
2019-03-12T21:03:07.818Z,93.00
2019-03-12T21:06:22.194Z,93.20
2019-03-12T21:09:35.174Z,93.80
2019-03-12T21:12:46.183Z,93.20
2019-03-12T21:15:59.042Z,93.30
2019-03-12T21:19:30.494Z,93.40
2019-03-12T21:22:45.221Z,93.30
2019-03-12T21:25:46.199Z,93.20
2019-03-12T21:29:06.295Z,93.70
2019-03-12T21:31:41.023Z,93.80
2019-03-12T21:34:15.014Z,93.90
2019-03-12T21:36:48.901Z,93.90
2019-03-12T21:39:24.299Z,93.90
2019-03-12T21:41:58.203Z,93.80
2019-03-12T21:44:31.993Z,93.80
2019-03-12T21:47:06.070Z,93.60
2019-03-12T21:49:39.929Z,94.00
2019-03-12T21:52:14.936Z,93.90
2019-03-12T21:54:49.335Z,93.90
2019-03-12T21:57:24.197Z,94.10
2019-03-12T21:59:59.155Z,94.20
2019-03-12T22:02:33.595Z,94.20
2019-03-12T22:05:07.854Z,94.20
2019-03-12T22:07:41.942Z,94.20
2019-03-12T22:10:15.520Z,94.20
2019-03-12T22:12:49.510Z,94.00
2019-03-12T22:15:23.544Z,94.10
2019-03-12T22:17:57.919Z,94.20
2019-03-12T22:20:32.171Z,94.00
2019-03-12T22:23:11.710Z,93.70
2019-03-12T22:25:45.316Z,93.90
2019-03-12T22:28:19.743Z,94.00
2019-03-12T22:30:56.191Z,93.70
2019-03-12T22:33:30.236Z,93.90
2019-03-12T22:36:03.698Z,93.90
2019-03-12T22:38:37.500Z,94.20
2019-03-12T22:41:11.012Z,94.20
2019-03-12T22:43:47.508Z,94.10
2019-03-12T22:46:21.422Z,94.10
2019-03-12T22:48:55.420Z,94.30
2019-03-12T22:51:28.988Z,94.30
2019-03-12T22:54:02.859Z,94.40
2019-03-12T22:56:37.063Z,94.60
2019-03-12T22:59:12.402Z,94.30
2019-03-12T23:02:04.244Z,94.20
2019-03-12T23:04:55.846Z,94.50
2019-03-12T23:07:46.875Z,94.60
2019-03-12T23:10:22.811Z,94.50
2019-03-12T23:12:59.199Z,94.30
2019-03-12T23:15:34.710Z,94.70
2019-03-12T23:18:09.181Z,94.90
2019-03-12T23:20:43.292Z,95.00
2019-03-12T23:23:17.055Z,94.90
2019-03-12T23:25:51.067Z,94.80
2019-03-12T23:28:24.880Z,94.70
2019-03-12T23:30:59.884Z,94.90
2019-03-12T23:33:34.264Z,95.10
2019-03-12T23:36:08.139Z,95.00
2019-03-12T23:38:41.796Z,95.10
2019-03-12T23:41:16.385Z,95.00
2019-03-12T23:43:51.165Z,95.00
2019-03-12T23:46:25.330Z,94.70
2019-03-12T23:48:59.043Z,94.50
2019-03-12T23:51:33.148Z,94.40
2019-03-12T23:54:06.756Z,94.70
2019-03-12T23:56:40.723Z,94.40
2019-03-12T23:59:15.835Z,94.30
